• Join FlightAware (Why Join?)
  • Login
  • US Flag 
02:09AM EDT


 

Airport Tracker/Info


-or-


 

Live Flight TrackerFlight Track Log ✈ C-GGBL ✈ 09-Nov-2013 ✈ CYVR - MWCR / GCM

Flight Track Log - Related Links

Times and Time Zones

All times are in EST time to prevent confusion due to time zone crossing. See the C-GGBL flight status page for this flight to view local times or setup timezone preferences in your user account.

Time Position Orientation Groundspeed Altitude Reporting Facility
EST Latitude Longitude Course Direction KTS MPH feet Rate Location/Type
05:08PM 27.5222 -88.3858 161° South 449 517 41,000  Level Houston Center
05:09PM 27.4028 -88.3392 161° South 452 520 41,000  Level Houston Center
05:10PM 27.2589 -88.2831 161° South 455 524 41,000  Level Houston Center
05:11PM 27.1389 -88.2356 161° South 456 525 41,000  Level Houston Center
05:12PM 27.0194 -88.1875 160° South 455 524 41,000  Level Houston Center
05:13PM 26.8892 -88.1353 160° South 458 527 41,000  Level Houston Center
05:14PM 26.7692 -88.0897 161° South 458 527 41,000  Level Houston Center
05:15PM 26.6497 -88.0433 161° South 457 526 41,000  Level Houston Center
05:16PM 26.5308 -87.9997 162° South 453 521 41,000  Level Houston Center
05:17PM 26.3947 -87.9522 163° South 452 520 41,000  Level Houston Center
05:19PM 26.2441 -87.8862 161° South  Level FlightAware Approximate
05:26PM 25.4025 -87.5546 160° South  Level FlightAware Approximate
05:27PM 25.2823 -87.5075 160° South  Level FlightAware Approximate
05:28PM 25.1620 -87.4604 160° South  Level FlightAware Approximate
05:29PM 25.0417 -87.4136 161° South  Level FlightAware Approximate
05:30PM 24.9208 -87.3687 161° South  Level FlightAware Approximate
05:31PM 24.7999 -87.3238 161° South  Level FlightAware Approximate
05:32PM 24.6790 -87.2791 161° South  Level FlightAware Approximate
05:33PM 24.5580 -87.2344 161° South  Level FlightAware Approximate
05:34PM 24.4371 -87.1899 161° South  Level FlightAware Approximate
05:35PM 24.3161 -87.1454 161° South  Level FlightAware Approximate
05:36PM 24.1976 -87.0938 157° South  Level FlightAware Approximate
05:37PM 24.0800 -87.0396 157° South  Level FlightAware Approximate
05:38PM 23.9624 -86.9855 157° South  Level FlightAware Approximate
05:39PM 23.8448 -86.9315 157° South  Level FlightAware Approximate
05:40PM 23.7271 -86.8776 157° South  Level FlightAware Approximate
05:41PM 23.6095 -86.8238 157° South  Level FlightAware Approximate
05:42PM 23.4918 -86.7701 157° South  Level FlightAware Approximate
05:43PM 23.3741 -86.7165 157° South  Level FlightAware Approximate
05:44PM 23.2564 -86.6630 157° South  Level FlightAware Approximate
05:45PM 23.1386 -86.6096 157° South  Level FlightAware Approximate
05:46PM 23.0209 -86.5563 157° South  Level FlightAware Approximate
05:47PM 22.9031 -86.5030 157° South  Level FlightAware Approximate
05:48PM 22.7853 -86.4499 157° South  Level FlightAware Approximate
05:49PM 22.6675 -86.3969 157° South  Level FlightAware Approximate
05:50PM 22.5497 -86.3439 157° South  Level FlightAware Approximate
05:51PM 22.4318 -86.2910 157° South  Level FlightAware Approximate
05:52PM 22.3139 -86.2383 157° South  Level FlightAware Approximate
05:53PM 22.1961 -86.1856 158° South  Level FlightAware Approximate
05:54PM 22.0782 -86.1330 158° South  Level FlightAware Approximate
05:55PM 21.9602 -86.0805 158° South  Level FlightAware Approximate
05:56PM 21.8424 -86.0279 158° South  Level FlightAware Approximate
05:57PM 21.7244 -85.9755 158° South  Level FlightAware Approximate
05:58PM 21.6065 -85.9232 158° South  Level FlightAware Approximate
05:59PM 21.4886 -85.8709 158° South  Level FlightAware Approximate
06:00PM 21.3706 -85.8189 158° South  Level FlightAware Approximate
06:01PM 21.2525 -85.7669 158° South  Level FlightAware Approximate
06:02PM 21.1345 -85.7150 158° South  Level FlightAware Approximate
06:03PM 21.0165 -85.6632 158° South  Level FlightAware Approximate
06:04PM 20.8984 -85.6114 158° South  Level FlightAware Approximate
06:05PM 20.7803 -85.5598 158° South  Level FlightAware Approximate
06:06PM 20.6622 -85.5082 158° South  Level FlightAware Approximate
06:07PM 20.5441 -85.4567 158° South  Level FlightAware Approximate
06:08PM 20.4260 -85.4053 158° South  Level FlightAware Approximate
06:09PM 20.3078 -85.3540 158° South  Level FlightAware Approximate
06:10PM 20.1897 -85.3027 158° South  Level FlightAware Approximate
06:11PM 20.1464 -85.1813 102° East  Level FlightAware Approximate
06:12PM 20.1198 -85.0484 102° East  Level FlightAware Approximate
06:13PM 20.0932 -84.9156 102° East  Level FlightAware Approximate
06:14PM 20.0652 -84.7831 103° East  Level FlightAware Approximate
06:15PM 20.0363 -84.6508 103° East  Level FlightAware Approximate
06:16PM 20.0074 -84.5186 103° East  Level FlightAware Approximate
06:17PM 19.9783 -84.3864 103° East  Level FlightAware Approximate
06:18PM 19.9492 -84.2542 103° East  Level FlightAware Approximate
06:19PM 19.9201 -84.1221 103° East  Level FlightAware Approximate
06:20PM 19.8908 -83.9901 103° East  Level FlightAware Approximate
06:21PM 19.8615 -83.8581 103° East  Level FlightAware Approximate
06:22PM 19.8320 -83.7261 103° East  Level FlightAware Approximate
06:23PM 19.8024 -83.5942 103° East  Level FlightAware Approximate
06:24PM 19.7722 -83.4625 104° East  Level FlightAware Approximate
06:25PM 19.7420 -83.3308 103° East  Level FlightAware Approximate
06:26PM 19.7123 -83.1990 105° East  Level FlightAware Approximate
06:27PM 19.6833 -83.0696 90° East  Level FlightAware Approximate
06:28PM 19.6502 -82.9396 108° East  Level FlightAware Approximate
06:29PM 19.6208 -82.8081 100° East  Level FlightAware Approximate
06:30PM 19.5979 -82.6749 105° East  Level FlightAware Approximate
06:31PM 19.5646 -82.5442 105° East  Level FlightAware Approximate
06:32PM 19.5309 -82.4137 105° East  Level FlightAware Approximate
06:33PM 19.4970 -82.2832 105° East  Level FlightAware Approximate
06:34PM 19.4649 -82.1524 98° East  Level FlightAware Approximate
06:35PM 19.4433 -82.0199 118° Southeast  Level FlightAware Approximate
06:36PM 19.4098 -81.8901 103° East  Level FlightAware Approximate
06:37PM 19.3808 -81.7584 108° East  Level FlightAware Approximate
06:38PM 19.3422 -81.6295 108° East  Level FlightAware Approximate
06:39PM 19.3130 -81.4985 102° East  Level FlightAware Approximate
06:40PM 19.2834 -81.3671 105° East  Level FlightAware Approximate
06:41PM 19.2928 -81.3577 137° Southeast  Level Estimated
06:42PM 19.2928 -81.3577 137° Southeast  Level Estimated
06:43PM 19.2928 -81.3577 137° Southeast  Level Estimated
06:44PM 19.2928 -81.3577 137° Southeast  Level Estimated
06:45PM 19.2928 -81.3577 137° Southeast  Level Estimated
06:46PM 19.2928 -81.3577 137° Southeast  Level Estimated
06:47PM 19.2928 -81.3577 137° Southeast  Level Estimated
06:48PM 19.2928 -81.3577 137° Southeast  Level Estimated
06:49PM 19.2928 -81.3577 137° Southeast  Level Estimated
06:50PM 19.2928 -81.3577 137° Southeast  Level Estimated
06:51PM 19.2928 -81.3577 137° Southeast  Level Estimated
06:52PM 19.2928 -81.3577 137° Southeast  Level Estimated
06:53PM 19.2928 -81.3577 137° Southeast  Level Estimated
06:54PM 19.2928 -81.3577 137° Southeast  Level Estimated
06:55PM 19.2928 -81.3577 137° Southeast  Level Estimated
06:56PM 19.2928 -81.3577 137° Southeast  Level Estimated
06:57PM 19.2928 -81.3577 137° Southeast  Level Estimated
06:58PM 19.2928 -81.3577 137° Southeast  Level Estimated
06:59PM 19.2928 -81.3577 137° Southeast  Level Estimated
07:00PM 19.2928 -81.3577 137° Southeast  Level Estimated
07:01PM 19.2928 -81.3577 137° Southeast  Level Estimated
07:02PM 19.2928 -81.3577 137° Southeast  Level Estimated
07:03PM 19.2928 -81.3577 137° Southeast  Level Estimated
07:04PM 19.2928 -81.3577 137° Southeast  Level Estimated
07:05PM 19.2928 -81.3577 137° Southeast  Level Estimated